createdAt,value
2019-05-29T00:04:19.895Z,11.91
2019-05-29T00:14:27.382Z,11.87
2019-05-29T00:24:30.822Z,11.82
2019-05-29T00:34:35.384Z,11.83
2019-05-29T00:44:39.981Z,11.82
2019-05-29T00:54:49.325Z,11.76
2019-05-29T01:04:53.796Z,11.63
2019-05-29T01:14:59.095Z,11.50
2019-05-29T01:25:03.635Z,11.41
2019-05-29T01:35:08.310Z,11.37
2019-05-29T01:45:12.965Z,11.38
2019-05-29T01:55:17.877Z,11.35
2019-05-29T02:05:22.626Z,11.37
2019-05-29T02:15:33.469Z,11.41
2019-05-29T02:25:33.317Z,11.42
2019-05-29T02:35:37.915Z,11.40
2019-05-29T02:45:53.840Z,11.39
2019-05-29T02:55:48.797Z,11.38
2019-05-29T03:05:56.754Z,11.34
2019-05-29T03:16:10.740Z,11.20
2019-05-29T03:26:07.816Z,10.97
2019-05-29T03:36:13.528Z,10.81
2019-05-29T03:46:30.090Z,10.76
2019-05-29T03:56:24.251Z,10.71
2019-05-29T04:06:29.126Z,10.71
2019-05-29T04:16:54.102Z,10.67
2019-05-29T04:26:41.394Z,10.67
2019-05-29T04:36:46.984Z,10.62
2019-05-29T04:47:09.409Z,10.52
2019-05-29T04:56:57.608Z,10.49
2019-05-29T05:07:02.074Z,10.48
2019-05-29T05:17:06.622Z,10.60
2019-05-29T05:27:12.182Z,10.67
2019-05-29T05:37:16.623Z,10.76
2019-05-29T05:47:21.161Z,10.84
2019-05-29T05:57:25.654Z,11.08
2019-05-29T06:07:30.100Z,11.12
2019-05-29T06:17:34.683Z,11.24
2019-05-29T06:27:39.371Z,11.23
2019-05-29T06:37:43.940Z,11.30
2019-05-29T06:47:48.549Z,11.43
2019-05-29T06:57:53.004Z,11.54
2019-05-29T07:07:57.672Z,11.64
2019-05-29T07:18:02.285Z,11.86
2019-05-29T07:28:06.852Z,12.10
2019-05-29T07:38:11.368Z,12.34
2019-05-29T07:48:16.780Z,12.73
2019-05-29T07:58:21.318Z,12.83
2019-05-29T08:08:28.160Z,13.12
2019-05-29T08:18:32.665Z,13.31
2019-05-29T08:28:37.353Z,13.66
2019-05-29T08:38:42.921Z,13.93
2019-05-29T08:48:49.968Z,14.24
2019-05-29T08:58:55.703Z,13.97
2019-05-29T09:09:00.226Z,14.01
2019-05-29T09:19:08.144Z,14.15
2019-05-29T09:29:17.761Z,14.62
2019-05-29T09:39:20.673Z,14.98
2019-05-29T09:49:26.109Z,15.62
2019-05-29T09:59:32.252Z,15.90
2019-05-29T10:09:36.974Z,16.23
2019-05-29T10:19:41.429Z,16.14
2019-05-29T10:29:48.830Z,16.26
2019-05-29T10:39:52.995Z,16.61
2019-05-29T10:49:57.664Z,17.07
2019-05-29T11:00:02.578Z,17.28
2019-05-29T11:10:13.460Z,17.63
2019-05-29T11:20:19.820Z,17.42
2019-05-29T11:30:24.633Z,18.09
2019-05-29T11:40:29.768Z,17.91
2019-05-29T11:50:35.867Z,17.81
2019-05-29T12:00:40.567Z,18.38
2019-05-29T12:10:45.014Z,19.12
2019-05-29T12:20:52.084Z,18.82
2019-05-29T12:30:56.962Z,19.32
2019-05-29T12:41:01.853Z,20.00
2019-05-29T12:51:06.502Z,20.41
2019-05-29T13:01:11.056Z,21.74
2019-05-29T13:11:15.491Z,18.83
2019-05-29T13:21:20.009Z,19.48
2019-05-29T13:31:25.974Z,19.92
2019-05-29T13:41:30.477Z,21.48
2019-05-29T13:51:34.973Z,25.11
2019-05-29T14:01:39.500Z,24.50
2019-05-29T14:11:44.089Z,22.48
2019-05-29T14:21:48.599Z,23.33
2019-05-29T14:31:53.262Z,22.37
2019-05-29T14:41:57.897Z,23.26
2019-05-29T14:52:02.610Z,19.11
2019-05-29T15:02:18.929Z,17.29
2019-05-29T15:12:15.626Z,20.98
2019-05-29T15:22:20.236Z,23.48
2019-05-29T15:32:25.147Z,21.37
2019-05-29T15:42:29.619Z,18.07
2019-05-29T15:52:35.170Z,19.27
2019-05-29T16:02:39.914Z,21.56
2019-05-29T16:12:44.376Z,22.48
2019-05-29T16:22:48.812Z,18.77
2019-05-29T16:32:53.327Z,19.14
2019-05-29T16:42:58.151Z,18.23
2019-05-29T16:53:02.763Z,17.68
2019-05-29T17:03:07.210Z,18.22
2019-05-29T17:13:11.645Z,17.30
2019-05-29T17:23:17.078Z,16.80
2019-05-29T17:33:23.029Z,17.21
2019-05-29T17:43:28.714Z,17.37
2019-05-29T17:53:33.450Z,17.37
2019-05-29T18:03:39.239Z,16.93
2019-05-29T18:13:44.033Z,16.81
2019-05-29T18:23:48.640Z,15.94
2019-05-29T18:33:53.362Z,15.18
2019-05-29T18:43:57.815Z,14.70
2019-05-29T18:54:02.395Z,14.22
2019-05-29T19:04:07.000Z,13.75
2019-05-29T19:14:11.537Z,13.33
2019-05-29T19:24:16.096Z,12.94
2019-05-29T19:34:20.743Z,12.61
2019-05-29T19:44:26.267Z,12.34
2019-05-29T19:54:31.695Z,12.13
2019-05-29T20:04:37.364Z,11.89
2019-05-29T20:14:41.833Z,11.72
2019-05-29T20:24:46.780Z,11.54
2019-05-29T20:34:51.328Z,11.40
2019-05-29T20:44:56.090Z,11.32
2019-05-29T20:55:00.663Z,11.23
2019-05-29T21:05:07.678Z,11.05
2019-05-29T21:15:13.181Z,10.87
2019-05-29T21:25:19.291Z,10.62
2019-05-29T21:35:24.232Z,10.52
2019-05-29T21:45:28.709Z,10.40
2019-05-29T21:55:33.206Z,10.23
2019-05-29T22:05:38.555Z,9.95
2019-05-29T22:15:43.131Z,9.84
2019-05-29T22:25:47.627Z,9.74
2019-05-29T22:35:53.899Z,9.66
2019-05-29T22:45:59.720Z,9.57
2019-05-29T22:56:04.429Z,9.38
2019-05-29T23:06:09.284Z,9.28
2019-05-29T23:16:13.777Z,9.13
2019-05-29T23:26:18.352Z,8.90
2019-05-29T23:36:22.988Z,8.73
2019-05-29T23:46:28.433Z,8.56
2019-05-29T23:56:32.847Z,8.48
